sensor_id;sensor_type;location;lat;lon;timestamp;P1;durP1;ratioP1;P2;durP2;ratioP2
22557;SDS011;11445;53.816;8.902;2023-07-13T00:01:29;5.82;;;2.90;;
22557;SDS011;11445;53.816;8.902;2023-07-13T00:03:57;5.18;;;2.63;;
22557;SDS011;11445;53.816;8.902;2023-07-13T00:06:24;3.70;;;2.47;;
22557;SDS011;11445;53.816;8.902;2023-07-13T00:08:56;7.80;;;3.08;;
22557;SDS011;11445;53.816;8.902;2023-07-13T00:11:23;6.93;;;3.00;;
22557;SDS011;11445;53.816;8.902;2023-07-13T00:13:50;12.27;;;2.70;;
22557;SDS011;11445;53.816;8.902;2023-07-13T00:16:17;6.90;;;2.38;;
22557;SDS011;11445;53.816;8.902;2023-07-13T00:18:44;3.60;;;2.35;;
22557;SDS011;11445;53.816;8.902;2023-07-13T00:21:11;7.15;;;2.67;;
22557;SDS011;11445;53.816;8.902;2023-07-13T00:23:40;5.25;;;2.95;;
22557;SDS011;11445;53.816;8.902;2023-07-13T00:26:10;6.75;;;3.00;;
22557;SDS011;11445;53.816;8.902;2023-07-13T00:28:38;6.05;;;2.85;;
22557;SDS011;11445;53.816;8.902;2023-07-13T00:31:06;7.53;;;3.10;;
22557;SDS011;11445;53.816;8.902;2023-07-13T00:33:34;6.28;;;2.88;;
22557;SDS011;11445;53.816;8.902;2023-07-13T00:36:02;6.70;;;3.05;;
22557;SDS011;11445;53.816;8.902;2023-07-13T00:38:29;5.50;;;3.28;;
22557;SDS011;11445;53.816;8.902;2023-07-13T00:40:56;6.95;;;3.38;;
22557;SDS011;11445;53.816;8.902;2023-07-13T00:43:26;5.03;;;2.92;;
22557;SDS011;11445;53.816;8.902;2023-07-13T00:46:10;7.88;;;3.75;;
22557;SDS011;11445;53.816;8.902;2023-07-13T00:48:40;5.57;;;3.40;;
22557;SDS011;11445;53.816;8.902;2023-07-13T00:51:09;8.30;;;2.88;;
22557;SDS011;11445;53.816;8.902;2023-07-13T00:53:37;13.57;;;3.38;;
22557;SDS011;11445;53.816;8.902;2023-07-13T00:56:04;7.25;;;3.20;;
22557;SDS011;11445;53.816;8.902;2023-07-13T00:58:33;10.02;;;3.28;;
22557;SDS011;11445;53.816;8.902;2023-07-13T01:01:01;4.93;;;3.50;;
22557;SDS011;11445;53.816;8.902;2023-07-13T01:03:28;9.30;;;3.95;;
22557;SDS011;11445;53.816;8.902;2023-07-13T01:05:55;7.18;;;3.70;;
22557;SDS011;11445;53.816;8.902;2023-07-13T01:08:22;7.15;;;3.47;;
22557;SDS011;11445;53.816;8.902;2023-07-13T01:10:53;7.47;;;3.55;;
22557;SDS011;11445;53.816;8.902;2023-07-13T01:13:20;8.70;;;3.78;;
22557;SDS011;11445;53.816;8.902;2023-07-13T01:15:50;6.25;;;3.90;;
22557;SDS011;11445;53.816;8.902;2023-07-13T01:18:18;7.22;;;3.88;;
22557;SDS011;11445;53.816;8.902;2023-07-13T01:20:52;10.70;;;3.78;;
22557;SDS011;11445;53.816;8.902;2023-07-13T01:23:20;10.50;;;3.60;;
22557;SDS011;11445;53.816;8.902;2023-07-13T01:25:48;10.35;;;4.55;;
22557;SDS011;11445;53.816;8.902;2023-07-13T01:28:15;7.30;;;3.90;;
22557;SDS011;11445;53.816;8.902;2023-07-13T01:30:42;8.55;;;3.92;;
22557;SDS011;11445;53.816;8.902;2023-07-13T01:33:11;7.95;;;4.18;;
22557;SDS011;11445;53.816;8.902;2023-07-13T01:35:39;5.25;;;3.78;;
22557;SDS011;11445;53.816;8.902;2023-07-13T01:38:07;9.98;;;4.10;;
22557;SDS011;11445;53.816;8.902;2023-07-13T01:40:36;9.90;;;4.50;;
22557;SDS011;11445;53.816;8.902;2023-07-13T01:43:03;7.18;;;4.13;;
22557;SDS011;11445;53.816;8.902;2023-07-13T01:45:31;10.77;;;5.03;;
22557;SDS011;11445;53.816;8.902;2023-07-13T01:47:58;11.60;;;4.63;;
22557;SDS011;11445;53.816;8.902;2023-07-13T01:50:25;7.82;;;4.60;;
22557;SDS011;11445;53.816;8.902;2023-07-13T01:52:52;9.45;;;4.18;;
22557;SDS011;11445;53.816;8.902;2023-07-13T01:55:20;10.40;;;4.63;;
22557;SDS011;11445;53.816;8.902;2023-07-13T01:57:48;9.70;;;4.93;;
22557;SDS011;11445;53.816;8.902;2023-07-13T02:00:15;8.43;;;4.90;;
22557;SDS011;11445;53.816;8.902;2023-07-13T02:02:42;14.57;;;4.70;;
22557;SDS011;11445;53.816;8.902;2023-07-13T02:05:09;11.15;;;4.70;;
22557;SDS011;11445;53.816;8.902;2023-07-13T02:07:36;10.95;;;4.40;;
22557;SDS011;11445;53.816;8.902;2023-07-13T02:10:03;11.52;;;4.88;;
22557;SDS011;11445;53.816;8.902;2023-07-13T02:12:32;7.63;;;4.70;;
22557;SDS011;11445;53.816;8.902;2023-07-13T02:14:59;10.13;;;4.80;;
22557;SDS011;11445;53.816;8.902;2023-07-13T02:17:26;10.43;;;4.90;;
22557;SDS011;11445;53.816;8.902;2023-07-13T02:19:53;10.18;;;4.43;;
22557;SDS011;11445;53.816;8.902;2023-07-13T02:22:20;11.73;;;4.18;;
22557;SDS011;11445;53.816;8.902;2023-07-13T02:24:47;6.97;;;4.53;;
22557;SDS011;11445;53.816;8.902;2023-07-13T02:27:14;7.03;;;3.85;;
22557;SDS011;11445;53.816;8.902;2023-07-13T02:29:42;8.77;;;3.78;;
22557;SDS011;11445;53.816;8.902;2023-07-13T02:32:09;12.13;;;4.07;;
22557;SDS011;11445;53.816;8.902;2023-07-13T02:34:36;8.57;;;4.30;;
22557;SDS011;11445;53.816;8.902;2023-07-13T02:37:03;10.48;;;4.38;;
22557;SDS011;11445;53.816;8.902;2023-07-13T02:39:30;11.90;;;4.15;;
22557;SDS011;11445;53.816;8.902;2023-07-13T02:41:58;10.90;;;4.50;;
22557;SDS011;11445;53.816;8.902;2023-07-13T02:44:24;7.50;;;4.07;;
22557;SDS011;11445;53.816;8.902;2023-07-13T02:46:53;9.57;;;3.90;;
22557;SDS011;11445;53.816;8.902;2023-07-13T02:49:20;9.27;;;4.25;;
22557;SDS011;11445;53.816;8.902;2023-07-13T02:51:47;13.15;;;4.70;;
22557;SDS011;11445;53.816;8.902;2023-07-13T02:54:14;11.68;;;5.25;;
22557;SDS011;11445;53.816;8.902;2023-07-13T02:56:40;9.93;;;4.13;;
22557;SDS011;11445;53.816;8.902;2023-07-13T02:59:08;8.23;;;4.22;;
22557;SDS011;11445;53.816;8.902;2023-07-13T03:01:36;9.00;;;3.67;;
22557;SDS011;11445;53.816;8.902;2023-07-13T03:04:04;7.28;;;4.03;;
22557;SDS011;11445;53.816;8.902;2023-07-13T03:06:31;6.93;;;4.35;;
22557;SDS011;11445;53.816;8.902;2023-07-13T03:08:58;8.32;;;3.75;;
22557;SDS011;11445;53.816;8.902;2023-07-13T03:11:26;14.82;;;4.22;;
22557;SDS011;11445;53.816;8.902;2023-07-13T03:13:53;12.85;;;4.55;;
22557;SDS011;11445;53.816;8.902;2023-07-13T03:16:20;9.07;;;3.88;;
22557;SDS011;11445;53.816;8.902;2023-07-13T03:18:47;8.27;;;4.28;;
22557;SDS011;11445;53.816;8.902;2023-07-13T03:21:15;13.45;;;4.38;;
22557;SDS011;11445;53.816;8.902;2023-07-13T03:23:42;12.85;;;4.50;;
22557;SDS011;11445;53.816;8.902;2023-07-13T03:26:10;6.10;;;4.10;;
22557;SDS011;11445;53.816;8.902;2023-07-13T03:28:39;7.65;;;4.30;;
22557;SDS011;11445;53.816;8.902;2023-07-13T03:31:09;6.13;;;3.65;;
22557;SDS011;11445;53.816;8.902;2023-07-13T03:33:37;9.65;;;3.75;;
22557;SDS011;11445;53.816;8.902;2023-07-13T03:36:05;6.80;;;3.80;;
22557;SDS011;11445;53.816;8.902;2023-07-13T03:38:34;12.43;;;4.68;;
22557;SDS011;11445;53.816;8.902;2023-07-13T03:41:01;6.93;;;3.97;;
22557;SDS011;11445;53.816;8.902;2023-07-13T03:43:28;10.23;;;4.43;;
22557;SDS011;11445;53.816;8.902;2023-07-13T03:45:55;10.57;;;4.40;;
22557;SDS011;11445;53.816;8.902;2023-07-13T03:48:22;7.30;;;3.95;;
22557;SDS011;11445;53.816;8.902;2023-07-13T03:50:48;18.85;;;4.63;;
22557;SDS011;11445;53.816;8.902;2023-07-13T03:53:15;10.80;;;4.70;;
22557;SDS011;11445;53.816;8.902;2023-07-13T03:55:44;10.10;;;4.45;;
22557;SDS011;11445;53.816;8.902;2023-07-13T03:58:28;8.30;;;3.97;;
22557;SDS011;11445;53.816;8.902;2023-07-13T04:00:56;12.57;;;4.70;;
22557;SDS011;11445;53.816;8.902;2023-07-13T04:03:23;10.35;;;4.15;;
22557;SDS011;11445;53.816;8.902;2023-07-13T04:05:53;11.45;;;4.22;;
22557;SDS011;11445;53.816;8.902;2023-07-13T04:08:20;13.27;;;3.67;;
22557;SDS011;11445;53.816;8.902;2023-07-13T04:10:48;15.70;;;4.28;;
22557;SDS011;11445;53.816;8.902;2023-07-13T04:13:15;12.90;;;4.10;;
22557;SDS011;11445;53.816;8.902;2023-07-13T04:15:42;11.48;;;3.53;;
22557;SDS011;11445;53.816;8.902;2023-07-13T04:18:09;11.20;;;4.00;;
22557;SDS011;11445;53.816;8.902;2023-07-13T04:20:35;12.80;;;3.65;;
22557;SDS011;11445;53.816;8.902;2023-07-13T04:23:02;9.80;;;4.07;;
22557;SDS011;11445;53.816;8.902;2023-07-13T04:25:29;15.15;;;4.18;;
22557;SDS011;11445;53.816;8.902;2023-07-13T04:27:57;15.40;;;3.88;;
22557;SDS011;11445;53.816;8.902;2023-07-13T04:30:24;11.73;;;3.53;;
22557;SDS011;11445;53.816;8.902;2023-07-13T04:33:02;9.85;;;3.97;;
22557;SDS011;11445;53.816;8.902;2023-07-13T04:35:29;16.73;;;3.33;;
22557;SDS011;11445;53.816;8.902;2023-07-13T04:37:56;16.25;;;4.00;;
22557;SDS011;11445;53.816;8.902;2023-07-13T04:40:23;18.73;;;3.45;;
22557;SDS011;11445;53.816;8.902;2023-07-13T04:42:50;7.72;;;3.13;;
22557;SDS011;11445;53.816;8.902;2023-07-13T04:45:18;16.02;;;3.45;;
22557;SDS011;11445;53.816;8.902;2023-07-13T04:47:45;14.60;;;3.78;;
22557;SDS011;11445;53.816;8.902;2023-07-13T04:50:12;14.43;;;3.20;;
22557;SDS011;11445;53.816;8.902;2023-07-13T04:52:44;13.82;;;3.58;;
22557;SDS011;11445;53.816;8.902;2023-07-13T04:55:11;10.38;;;3.70;;
22557;SDS011;11445;53.816;8.902;2023-07-13T04:57:38;16.23;;;3.90;;
22557;SDS011;11445;53.816;8.902;2023-07-13T05:00:05;13.73;;;3.15;;
22557;SDS011;11445;53.816;8.902;2023-07-13T05:02:34;13.57;;;3.20;;
22557;SDS011;11445;53.816;8.902;2023-07-13T05:05:01;10.63;;;3.53;;
22557;SDS011;11445;53.816;8.902;2023-07-13T05:07:29;10.43;;;4.05;;
22557;SDS011;11445;53.816;8.902;2023-07-13T05:09:57;11.15;;;3.38;;
22557;SDS011;11445;53.816;8.902;2023-07-13T05:12:24;14.02;;;2.72;;
22557;SDS011;11445;53.816;8.902;2023-07-13T05:14:51;15.50;;;3.50;;
22557;SDS011;11445;53.816;8.902;2023-07-13T05:17:18;11.32;;;3.15;;
22557;SDS011;11445;53.816;8.902;2023-07-13T05:19:46;15.98;;;3.15;;
22557;SDS011;11445;53.816;8.902;2023-07-13T05:22:13;13.15;;;2.92;;
22557;SDS011;11445;53.816;8.902;2023-07-13T05:24:40;11.20;;;3.38;;
22557;SDS011;11445;53.816;8.902;2023-07-13T05:27:07;11.63;;;3.33;;
22557;SDS011;11445;53.816;8.902;2023-07-13T05:29:33;10.85;;;3.20;;
22557;SDS011;11445;53.816;8.902;2023-07-13T05:32:00;12.25;;;3.13;;
22557;SDS011;11445;53.816;8.902;2023-07-13T05:34:27;14.93;;;3.00;;
22557;SDS011;11445;53.816;8.902;2023-07-13T05:36:55;8.32;;;2.55;;
22557;SDS011;11445;53.816;8.902;2023-07-13T05:39:22;13.10;;;2.90;;
22557;SDS011;11445;53.816;8.902;2023-07-13T05:41:49;11.13;;;3.38;;
22557;SDS011;11445;53.816;8.902;2023-07-13T05:44:16;11.48;;;2.78;;
22557;SDS011;11445;53.816;8.902;2023-07-13T05:46:43;10.63;;;2.92;;
22557;SDS011;11445;53.816;8.902;2023-07-13T05:49:10;10.13;;;3.30;;
22557;SDS011;11445;53.816;8.902;2023-07-13T05:51:37;9.77;;;2.88;;
22557;SDS011;11445;53.816;8.902;2023-07-13T05:54:05;14.32;;;3.08;;
22557;SDS011;11445;53.816;8.902;2023-07-13T05:56:32;14.95;;;3.42;;
22557;SDS011;11445;53.816;8.902;2023-07-13T05:58:59;11.40;;;2.50;;
22557;SDS011;11445;53.816;8.902;2023-07-13T06:01:26;9.75;;;2.83;;
22557;SDS011;11445;53.816;8.902;2023-07-13T06:03:52;17.40;;;3.58;;
22557;SDS011;11445;53.816;8.902;2023-07-13T06:06:19;8.68;;;2.97;;
22557;SDS011;11445;53.816;8.902;2023-07-13T06:08:46;12.25;;;2.60;;
22557;SDS011;11445;53.816;8.902;2023-07-13T06:11:15;13.32;;;3.05;;
22557;SDS011;11445;53.816;8.902;2023-07-13T06:13:43;12.38;;;3.15;;
22557;SDS011;11445;53.816;8.902;2023-07-13T06:16:10;15.50;;;3.35;;
22557;SDS011;11445;53.816;8.902;2023-07-13T06:18:39;10.90;;;3.05;;
22557;SDS011;11445;53.816;8.902;2023-07-13T06:21:06;9.45;;;2.42;;
22557;SDS011;11445;53.816;8.902;2023-07-13T06:23:34;5.57;;;2.40;;
22557;SDS011;11445;53.816;8.902;2023-07-13T06:26:01;15.02;;;3.15;;
22557;SDS011;11445;53.816;8.902;2023-07-13T06:28:30;9.15;;;2.60;;
22557;SDS011;11445;53.816;8.902;2023-07-13T06:30:57;9.75;;;2.70;;
22557;SDS011;11445;53.816;8.902;2023-07-13T06:33:24;12.82;;;3.72;;
22557;SDS011;11445;53.816;8.902;2023-07-13T06:35:51;14.57;;;2.28;;
22557;SDS011;11445;53.816;8.902;2023-07-13T06:38:19;8.93;;;2.40;;
22557;SDS011;11445;53.816;8.902;2023-07-13T06:40:46;17.38;;;3.25;;
22557;SDS011;11445;53.816;8.902;2023-07-13T06:43:13;9.25;;;2.80;;
22557;SDS011;11445;53.816;8.902;2023-07-13T06:45:42;8.52;;;2.42;;
22557;SDS011;11445;53.816;8.902;2023-07-13T06:48:10;7.03;;;2.75;;
22557;SDS011;11445;53.816;8.902;2023-07-13T06:50:37;11.98;;;2.53;;
22557;SDS011;11445;53.816;8.902;2023-07-13T06:53:04;12.10;;;2.92;;
22557;SDS011;11445;53.816;8.902;2023-07-13T06:55:31;18.23;;;3.50;;
22557;SDS011;11445;53.816;8.902;2023-07-13T06:57:58;8.73;;;2.70;;
22557;SDS011;11445;53.816;8.902;2023-07-13T07:00:24;12.88;;;3.13;;
22557;SDS011;11445;53.816;8.902;2023-07-13T07:02:52;11.27;;;2.60;;
22557;SDS011;11445;53.816;8.902;2023-07-13T07:05:19;11.82;;;2.72;;
22557;SDS011;11445;53.816;8.902;2023-07-13T07:07:47;12.75;;;2.70;;
22557;SDS011;11445;53.816;8.902;2023-07-13T07:10:13;15.00;;;3.22;;
22557;SDS011;11445;53.816;8.902;2023-07-13T07:12:40;13.20;;;3.45;;
22557;SDS011;11445;53.816;8.902;2023-07-13T07:15:07;14.25;;;3.60;;
22557;SDS011;11445;53.816;8.902;2023-07-13T07:17:35;13.43;;;3.13;;
22557;SDS011;11445;53.816;8.902;2023-07-13T07:20:04;11.75;;;3.40;;
22557;SDS011;11445;53.816;8.902;2023-07-13T07:22:31;13.23;;;3.15;;
22557;SDS011;11445;53.816;8.902;2023-07-13T07:24:58;14.00;;;3.58;;
22557;SDS011;11445;53.816;8.902;2023-07-13T07:27:25;13.98;;;2.78;;
22557;SDS011;11445;53.816;8.902;2023-07-13T07:29:52;9.20;;;2.60;;
22557;SDS011;11445;53.816;8.902;2023-07-13T07:32:19;9.73;;;3.60;;
22557;SDS011;11445;53.816;8.902;2023-07-13T07:34:46;10.80;;;3.80;;
22557;SDS011;11445;53.816;8.902;2023-07-13T07:37:15;11.95;;;2.90;;
22557;SDS011;11445;53.816;8.902;2023-07-13T07:39:42;18.33;;;4.13;;
22557;SDS011;11445;53.816;8.902;2023-07-13T07:42:09;9.70;;;3.00;;
22557;SDS011;11445;53.816;8.902;2023-07-13T07:44:37;14.48;;;3.10;;
22557;SDS011;11445;53.816;8.902;2023-07-13T07:47:06;18.35;;;3.65;;
22557;SDS011;11445;53.816;8.902;2023-07-13T07:49:33;16.17;;;3.55;;
22557;SDS011;11445;53.816;8.902;2023-07-13T07:52:00;16.23;;;3.78;;
22557;SDS011;11445;53.816;8.902;2023-07-13T07:54:28;11.48;;;3.00;;
22557;SDS011;11445;53.816;8.902;2023-07-13T07:56:55;13.30;;;3.10;;
22557;SDS011;11445;53.816;8.902;2023-07-13T07:59:21;7.80;;;3.13;;
22557;SDS011;11445;53.816;8.902;2023-07-13T08:01:48;11.63;;;3.42;;
22557;SDS011;11445;53.816;8.902;2023-07-13T08:04:15;18.20;;;3.60;;
22557;SDS011;11445;53.816;8.902;2023-07-13T08:06:42;11.75;;;3.28;;
22557;SDS011;11445;53.816;8.902;2023-07-13T08:09:09;13.02;;;3.55;;
22557;SDS011;11445;53.816;8.902;2023-07-13T08:11:37;18.73;;;3.05;;
22557;SDS011;11445;53.816;8.902;2023-07-13T08:14:04;10.25;;;3.30;;
22557;SDS011;11445;53.816;8.902;2023-07-13T08:16:30;11.57;;;3.10;;
22557;SDS011;11445;53.816;8.902;2023-07-13T08:18:57;11.90;;;3.15;;
22557;SDS011;11445;53.816;8.902;2023-07-13T08:21:24;8.13;;;2.97;;
22557;SDS011;11445;53.816;8.902;2023-07-13T08:23:51;13.75;;;2.70;;
22557;SDS011;11445;53.816;8.902;2023-07-13T08:26:18;11.13;;;2.70;;
22557;SDS011;11445;53.816;8.902;2023-07-13T08:28:46;17.83;;;3.22;;
22557;SDS011;11445;53.816;8.902;2023-07-13T08:31:13;10.82;;;3.10;;
22557;SDS011;11445;53.816;8.902;2023-07-13T08:33:40;11.10;;;2.70;;
22557;SDS011;11445;53.816;8.902;2023-07-13T08:36:07;9.13;;;2.75;;
22557;SDS011;11445;53.816;8.902;2023-07-13T08:38:34;14.23;;;2.80;;
22557;SDS011;11445;53.816;8.902;2023-07-13T08:41:02;8.82;;;2.75;;
22557;SDS011;11445;53.816;8.902;2023-07-13T08:43:37;11.65;;;2.65;;
22557;SDS011;11445;53.816;8.902;2023-07-13T08:46:07;11.57;;;2.75;;
22557;SDS011;11445;53.816;8.902;2023-07-13T08:48:38;7.35;;;2.67;;
22557;SDS011;11445;53.816;8.902;2023-07-13T08:51:11;7.32;;;2.75;;
22557;SDS011;11445;53.816;8.902;2023-07-13T08:53:47;12.82;;;3.15;;
22557;SDS011;11445;53.816;8.902;2023-07-13T08:56:19;5.63;;;2.17;;
22557;SDS011;11445;53.816;8.902;2023-07-13T08:58:49;9.45;;;2.13;;
22557;SDS011;11445;53.816;8.902;2023-07-13T09:01:23;3.83;;;1.60;;
22557;SDS011;11445;53.816;8.902;2023-07-13T09:03:57;8.43;;;2.60;;
22557;SDS011;11445;53.816;8.902;2023-07-13T09:06:31;4.53;;;1.67;;
22557;SDS011;11445;53.816;8.902;2023-07-13T09:09:07;8.10;;;2.22;;
22557;SDS011;11445;53.816;8.902;2023-07-13T09:11:45;5.72;;;1.80;;
22557;SDS011;11445;53.816;8.902;2023-07-13T09:14:26;10.60;;;2.10;;
22557;SDS011;11445;53.816;8.902;2023-07-13T09:17:19;9.80;;;2.22;;
22557;SDS011;11445;53.816;8.902;2023-07-13T09:19:53;4.95;;;2.20;;
22557;SDS011;11445;53.816;8.902;2023-07-13T09:22:24;7.97;;;2.50;;
22557;SDS011;11445;53.816;8.902;2023-07-13T09:24:55;5.18;;;1.90;;
22557;SDS011;11445;53.816;8.902;2023-07-13T09:27:27;11.63;;;1.98;;
22557;SDS011;11445;53.816;8.902;2023-07-13T09:30:01;8.45;;;1.52;;
22557;SDS011;11445;53.816;8.902;2023-07-13T09:32:52;4.28;;;1.50;;
22557;SDS011;11445;53.816;8.902;2023-07-13T09:35:20;7.93;;;1.95;;
22557;SDS011;11445;53.816;8.902;2023-07-13T09:37:50;8.35;;;1.30;;
22557;SDS011;11445;53.816;8.902;2023-07-13T09:40:20;4.68;;;1.38;;
22557;SDS011;11445;53.816;8.902;2023-07-13T09:42:51;9.10;;;1.10;;
22557;SDS011;11445;53.816;8.902;2023-07-13T09:45:26;10.45;;;1.70;;
22557;SDS011;11445;53.816;8.902;2023-07-13T09:48:02;4.70;;;1.50;;
22557;SDS011;11445;53.816;8.902;2023-07-13T09:50:31;7.00;;;1.63;;
22557;SDS011;11445;53.816;8.902;2023-07-13T09:52:58;4.57;;;1.33;;
22557;SDS011;11445;53.816;8.902;2023-07-13T09:55:29;8.18;;;1.50;;
22557;SDS011;11445;53.816;8.902;2023-07-13T09:57:57;7.00;;;1.70;;
22557;SDS011;11445;53.816;8.902;2023-07-13T10:00:30;8.77;;;1.58;;
22557;SDS011;11445;53.816;8.902;2023-07-13T10:03:00;9.25;;;1.50;;
22557;SDS011;11445;53.816;8.902;2023-07-13T10:05:36;7.50;;;1.73;;
22557;SDS011;11445;53.816;8.902;2023-07-13T10:08:04;12.20;;;1.80;;
22557;SDS011;11445;53.816;8.902;2023-07-13T10:10:32;13.73;;;1.98;;
22557;SDS011;11445;53.816;8.902;2023-07-13T10:13:01;6.85;;;1.70;;
22557;SDS011;11445;53.816;8.902;2023-07-13T10:15:29;7.88;;;1.48;;
22557;SDS011;11445;53.816;8.902;2023-07-13T10:17:57;7.30;;;1.58;;
22557;SDS011;11445;53.816;8.902;2023-07-13T10:20:25;6.55;;;1.52;;
22557;SDS011;11445;53.816;8.902;2023-07-13T10:22:54;15.20;;;1.83;;
22557;SDS011;11445;53.816;8.902;2023-07-13T10:25:25;6.20;;;1.58;;
22557;SDS011;11445;53.816;8.902;2023-07-13T10:27:54;9.63;;;1.77;;
22557;SDS011;11445;53.816;8.902;2023-07-13T10:30:28;7.68;;;1.40;;
22557;SDS011;11445;53.816;8.902;2023-07-13T10:32:59;7.47;;;1.45;;
22557;SDS011;11445;53.816;8.902;2023-07-13T10:35:30;4.63;;;1.30;;
22557;SDS011;11445;53.816;8.902;2023-07-13T10:37:58;4.03;;;1.33;;
22557;SDS011;11445;53.816;8.902;2023-07-13T10:40:32;7.60;;;1.70;;
22557;SDS011;11445;53.816;8.902;2023-07-13T10:43:05;5.82;;;1.02;;
22557;SDS011;11445;53.816;8.902;2023-07-13T10:45:38;3.72;;;0.90;;
22557;SDS011;11445;53.816;8.902;2023-07-13T10:48:06;6.00;;;1.10;;
22557;SDS011;11445;53.816;8.902;2023-07-13T10:50:40;5.38;;;1.25;;
22557;SDS011;11445;53.816;8.902;2023-07-13T10:53:17;4.35;;;0.88;;
22557;SDS011;11445;53.816;8.902;2023-07-13T10:55:54;12.85;;;1.98;;
22557;SDS011;11445;53.816;8.902;2023-07-13T10:58:28;5.53;;;1.15;;
22557;SDS011;11445;53.816;8.902;2023-07-13T11:01:03;5.85;;;1.10;;
22557;SDS011;11445;53.816;8.902;2023-07-13T11:03:34;6.10;;;1.20;;
22557;SDS011;11445;53.816;8.902;2023-07-13T11:06:08;2.78;;;1.23;;
22557;SDS011;11445;53.816;8.902;2023-07-13T11:08:37;2.45;;;0.98;;
22557;SDS011;11445;53.816;8.902;2023-07-13T11:11:31;2.08;;;1.00;;
22557;SDS011;11445;53.816;8.902;2023-07-13T11:14:01;3.88;;;1.10;;
22557;SDS011;11445;53.816;8.902;2023-07-13T11:16:37;3.33;;;1.25;;
22557;SDS011;11445;53.816;8.902;2023-07-13T11:22:12;3.85;;;1.38;;
22557;SDS011;11445;53.816;8.902;2023-07-13T11:24:48;3.28;;;1.13;;
22557;SDS011;11445;53.816;8.902;2023-07-13T11:27:36;6.55;;;1.30;;
22557;SDS011;11445;53.816;8.902;2023-07-13T11:30:20;4.95;;;1.13;;
22557;SDS011;11445;53.816;8.902;2023-07-13T11:33:04;3.15;;;1.00;;
22557;SDS011;11445;53.816;8.902;2023-07-13T11:35:48;4.63;;;1.85;;
22557;SDS011;11445;53.816;8.902;2023-07-13T11:38:30;8.43;;;1.83;;
22557;SDS011;11445;53.816;8.902;2023-07-13T11:41:02;9.50;;;1.80;;
22557;SDS011;11445;53.816;8.902;2023-07-13T11:43:31;7.10;;;1.70;;
22557;SDS011;11445;53.816;8.902;2023-07-13T11:45:58;3.85;;;1.70;;
22557;SDS011;11445;53.816;8.902;2023-07-13T11:48:37;4.25;;;1.70;;
22557;SDS011;11445;53.816;8.902;2023-07-13T11:51:05;7.07;;;2.00;;
22557;SDS011;11445;53.816;8.902;2023-07-13T11:53:38;5.82;;;1.52;;
22557;SDS011;11445;53.816;8.902;2023-07-13T11:56:07;3.20;;;1.20;;
22557;SDS011;11445;53.816;8.902;2023-07-13T11:58:34;3.70;;;1.40;;
22557;SDS011;11445;53.816;8.902;2023-07-13T12:01:01;4.78;;;1.60;;
22557;SDS011;11445;53.816;8.902;2023-07-13T12:03:30;2.75;;;1.50;;
22557;SDS011;11445;53.816;8.902;2023-07-13T12:06:00;7.72;;;1.35;;
22557;SDS011;11445;53.816;8.902;2023-07-13T12:08:28;4.82;;;1.73;;
22557;SDS011;11445;53.816;8.902;2023-07-13T12:11:00;4.18;;;1.35;;
22557;SDS011;11445;53.816;8.902;2023-07-13T12:13:35;2.58;;;0.93;;
22557;SDS011;11445;53.816;8.902;2023-07-13T12:16:08;2.28;;;1.08;;
22557;SDS011;11445;53.816;8.902;2023-07-13T12:18:40;4.10;;;1.33;;
22557;SDS011;11445;53.816;8.902;2023-07-13T12:21:12;2.47;;;1.15;;
22557;SDS011;11445;53.816;8.902;2023-07-13T12:23:43;6.88;;;1.60;;
22557;SDS011;11445;53.816;8.902;2023-07-13T12:26:12;6.85;;;1.20;;
22557;SDS011;11445;53.816;8.902;2023-07-13T12:28:43;4.35;;;1.40;;
22557;SDS011;11445;53.816;8.902;2023-07-13T12:33:58;4.57;;;1.52;;
22557;SDS011;11445;53.816;8.902;2023-07-13T12:36:29;8.15;;;1.55;;
22557;SDS011;11445;53.816;8.902;2023-07-13T12:38:59;16.20;;;1.50;;
22557;SDS011;11445;53.816;8.902;2023-07-13T12:41:31;7.18;;;1.52;;
22557;SDS011;11445;53.816;8.902;2023-07-13T12:43:59;1.88;;;1.27;;
22557;SDS011;11445;53.816;8.902;2023-07-13T12:46:26;2.22;;;1.27;;
22557;SDS011;11445;53.816;8.902;2023-07-13T12:48:54;5.13;;;1.10;;
22557;SDS011;11445;53.816;8.902;2023-07-13T12:51:24;9.45;;;1.58;;
22557;SDS011;11445;53.816;8.902;2023-07-13T12:53:55;3.10;;;1.55;;
22557;SDS011;11445;53.816;8.902;2023-07-13T12:56:25;2.88;;;1.38;;
22557;SDS011;11445;53.816;8.902;2023-07-13T12:58:56;4.97;;;1.23;;
22557;SDS011;11445;53.816;8.902;2023-07-13T13:01:25;6.50;;;1.45;;
22557;SDS011;11445;53.816;8.902;2023-07-13T13:03:54;4.80;;;1.58;;
22557;SDS011;11445;53.816;8.902;2023-07-13T13:06:23;8.88;;;2.47;;
22557;SDS011;11445;53.816;8.902;2023-07-13T13:08:52;7.05;;;1.92;;
22557;SDS011;11445;53.816;8.902;2023-07-13T13:11:20;7.85;;;2.28;;
22557;SDS011;11445;53.816;8.902;2023-07-13T13:13:49;7.20;;;1.75;;
22557;SDS011;11445;53.816;8.902;2023-07-13T13:16:19;6.45;;;1.70;;
22557;SDS011;11445;53.816;8.902;2023-07-13T13:18:48;11.30;;;2.03;;
22557;SDS011;11445;53.816;8.902;2023-07-13T13:21:16;7.88;;;2.00;;
22557;SDS011;11445;53.816;8.902;2023-07-13T13:23:43;9.45;;;2.20;;
22557;SDS011;11445;53.816;8.902;2023-07-13T13:26:11;11.25;;;1.60;;
22557;SDS011;11445;53.816;8.902;2023-07-13T13:28:39;5.47;;;1.75;;
22557;SDS011;11445;53.816;8.902;2023-07-13T13:31:07;4.40;;;1.35;;
22557;SDS011;11445;53.816;8.902;2023-07-13T13:33:38;4.85;;;1.60;;
22557;SDS011;11445;53.816;8.902;2023-07-13T13:36:13;4.80;;;1.85;;
22557;SDS011;11445;53.816;8.902;2023-07-13T13:38:42;2.83;;;1.40;;
22557;SDS011;11445;53.816;8.902;2023-07-13T13:41:09;8.88;;;1.60;;
22557;SDS011;11445;53.816;8.902;2023-07-13T13:43:38;2.53;;;1.20;;
22557;SDS011;11445;53.816;8.902;2023-07-13T13:46:09;2.45;;;1.40;;
22557;SDS011;11445;53.816;8.902;2023-07-13T13:48:42;3.20;;;1.58;;
22557;SDS011;11445;53.816;8.902;2023-07-13T13:51:13;5.07;;;1.60;;
22557;SDS011;11445;53.816;8.902;2023-07-13T13:53:42;2.83;;;1.42;;
22557;SDS011;11445;53.816;8.902;2023-07-13T13:56:09;3.85;;;1.20;;
22557;SDS011;11445;53.816;8.902;2023-07-13T13:58:35;5.07;;;1.30;;
22557;SDS011;11445;53.816;8.902;2023-07-13T14:01:02;4.80;;;1.58;;
22557;SDS011;11445;53.816;8.902;2023-07-13T14:03:33;12.82;;;1.30;;
22557;SDS011;11445;53.816;8.902;2023-07-13T14:06:01;3.28;;;1.10;;
22557;SDS011;11445;53.816;8.902;2023-07-13T14:08:28;7.43;;;1.70;;
22557;SDS011;11445;53.816;8.902;2023-07-13T14:10:56;8.95;;;1.63;;
22557;SDS011;11445;53.816;8.902;2023-07-13T14:13:25;6.50;;;1.65;;
22557;SDS011;11445;53.816;8.902;2023-07-13T14:15:54;3.75;;;1.10;;
22557;SDS011;11445;53.816;8.902;2023-07-13T14:18:21;6.47;;;1.55;;
22557;SDS011;11445;53.816;8.902;2023-07-13T14:20:49;5.20;;;1.02;;
22557;SDS011;11445;53.816;8.902;2023-07-13T14:23:18;3.85;;;1.25;;
22557;SDS011;11445;53.816;8.902;2023-07-13T14:25:45;6.13;;;1.35;;
22557;SDS011;11445;53.816;8.902;2023-07-13T14:28:19;6.78;;;1.50;;
22557;SDS011;11445;53.816;8.902;2023-07-13T14:30:47;4.60;;;1.08;;
22557;SDS011;11445;53.816;8.902;2023-07-13T14:33:15;3.20;;;1.10;;
22557;SDS011;11445;53.816;8.902;2023-07-13T14:35:42;6.10;;;1.45;;
22557;SDS011;11445;53.816;8.902;2023-07-13T14:38:10;5.20;;;1.00;;
22557;SDS011;11445;53.816;8.902;2023-07-13T14:40:40;5.28;;;1.48;;
22557;SDS011;11445;53.816;8.902;2023-07-13T14:43:09;6.85;;;1.10;;
22557;SDS011;11445;53.816;8.902;2023-07-13T14:45:38;3.55;;;0.82;;
22557;SDS011;11445;53.816;8.902;2023-07-13T14:48:13;3.80;;;1.00;;
22557;SDS011;11445;53.816;8.902;2023-07-13T14:50:42;7.13;;;1.25;;
22557;SDS011;11445;53.816;8.902;2023-07-13T14:53:09;7.78;;;1.30;;
22557;SDS011;11445;53.816;8.902;2023-07-13T14:55:37;6.43;;;1.08;;
22557;SDS011;11445;53.816;8.902;2023-07-13T14:58:05;6.90;;;1.30;;
22557;SDS011;11445;53.816;8.902;2023-07-13T15:00:32;8.52;;;1.13;;